Time;durP1;ratioP1;P1;durP2;ratioP2;P2;SDS_P1;SDS_P2;PMS_P1;PMS_P2;Temp;Humidity;BMP_temperature;BMP_pressure;BME280_temperature;BME280_humidity;BME280_pressure;Samples;Min_cycle;Max_cycle;Signal;HPM_P1;HPM_P2
2022/04/16 00:00:55;;;;;;;4.70;2.83;;;15.20;99.90;;;;;;5028612;28;20215;-76
2022/04/16 00:03:22;;;;;;;3.15;2.85;;;15.20;99.90;;;;;;5029483;28;20246;-76
2022/04/16 00:05:51;;;;;;;3.75;3.05;;;15.20;99.90;;;;;;5025620;28;20282;-76
2022/04/16 00:08:20;;;;;;;3.92;3.05;;;15.20;99.90;;;;;;5027031;28;20215;-76
2022/04/16 00:10:48;;;;;;;4.35;2.80;;;15.10;99.90;;;;;;5028648;28;20219;-75
2022/04/16 00:13:16;;;;;;;4.40;2.97;;;15.10;99.90;;;;;;5026397;28;20219;-76
2022/04/16 00:15:43;;;;;;;4.10;2.45;;;15.10;99.90;;;;;;5036706;28;20195;-76
2022/04/16 00:18:11;;;;;;;3.92;2.78;;;15.00;99.90;;;;;;5025600;28;20683;-77
2022/04/16 00:20:40;;;;;;;3.42;3.13;;;15.00;99.90;;;;;;5026610;28;20228;-76
2022/04/16 00:23:07;;;;;;;2.70;2.50;;;15.00;99.90;;;;;;5028000;28;20689;-76
2022/04/16 00:25:36;;;;;;;2.90;2.45;;;14.90;99.90;;;;;;5029942;28;20188;-76
2022/04/16 00:28:03;;;;;;;3.00;2.47;;;14.90;99.90;;;;;;5027607;28;20796;-76
2022/04/16 00:30:35;;;;;;;2.65;2.45;;;14.90;99.90;;;;;;5029444;28;20629;-76
2022/04/16 00:33:02;;;;;;;2.65;2.45;;;14.80;99.90;;;;;;5027535;28;20234;-76
2022/04/16 00:35:30;;;;;;;3.20;2.00;;;14.80;99.90;;;;;;5030753;28;20254;-76
2022/04/16 00:37:57;;;;;;;3.08;2.00;;;14.80;99.90;;;;;;5031642;28;20301;-75
2022/04/16 00:40:24;;;;;;;3.20;2.35;;;14.80;99.90;;;;;;5026180;28;20270;-77
2022/04/16 00:42:53;;;;;;;3.15;2.40;;;14.70;99.90;;;;;;5033670;28;20272;-76
2022/04/16 00:45:20;;;;;;;2.00;1.90;;;14.70;99.90;;;;;;5031567;28;20193;-76
2022/04/16 00:47:47;;;;;;;2.45;2.10;;;14.70;99.90;;;;;;5024104;28;20219;-77
2022/04/16 00:50:15;;;;;;;3.67;2.03;;;14.70;99.90;;;;;;5029838;28;20211;-76
2022/04/16 00:52:43;;;;;;;2.35;1.88;;;14.60;99.90;;;;;;5020436;28;20226;-76
2022/04/16 00:55:11;;;;;;;2.35;2.00;;;14.60;99.90;;;;;;5025780;28;20230;-77
2022/04/16 00:57:39;;;;;;;2.00;1.60;;;14.60;99.90;;;;;;5030819;28;20220;-76
2022/04/16 01:00:10;;;;;;;1.50;1.40;;;14.50;99.90;;;;;;5026874;28;20222;-76
2022/04/16 01:02:37;;;;;;;1.65;1.55;;;14.40;99.90;;;;;;5025008;28;20231;-76
2022/04/16 01:05:06;;;;;;;2.42;1.85;;;14.40;99.90;;;;;;5026592;28;20512;-77
2022/04/16 01:07:33;;;;;;;1.80;1.60;;;14.30;99.90;;;;;;5023498;28;20282;-76
2022/04/16 01:10:00;;;;;;;1.55;1.45;;;14.30;99.90;;;;;;5033748;28;20326;-76
2022/04/16 01:12:27;;;;;;;1.88;1.70;;;14.30;99.90;;;;;;5028154;28;20195;-76
2022/04/16 01:14:55;;;;;;;2.70;1.50;;;14.20;99.90;;;;;;5026624;28;20223;-76
2022/04/16 01:17:23;;;;;;;2.03;1.63;;;14.20;99.90;;;;;;5027659;28;20295;-76
2022/04/16 01:19:50;;;;;;;1.73;1.63;;;14.20;99.90;;;;;;5029521;28;20689;-76
2022/04/16 01:22:20;;;;;;;2.35;1.92;;;14.20;99.90;;;;;;5028058;28;20249;-76
2022/04/16 01:24:49;;;;;;;1.52;1.42;;;14.20;99.90;;;;;;5027517;28;20586;-76
2022/04/16 01:27:17;;;;;;;1.38;1.27;;;14.20;99.90;;;;;;5033166;28;20215;-76
2022/04/16 01:29:44;;;;;;;1.70;1.60;;;14.10;99.90;;;;;;5035015;28;20223;-75
2022/04/16 01:32:11;;;;;;;1.63;1.52;;;14.10;99.90;;;;;;5034234;28;20195;-76
2022/04/16 01:34:40;;;;;;;3.17;1.58;;;14.10;99.90;;;;;;5029188;28;20970;-76
2022/04/16 01:37:09;;;;;;;1.73;1.42;;;14.10;99.90;;;;;;5028792;28;20200;-76
2022/04/16 01:39:36;;;;;;;2.67;1.35;;;14.10;99.90;;;;;;5030846;28;20875;-76
2022/04/16 01:42:05;;;;;;;1.30;1.20;;;14.10;99.90;;;;;;5036935;28;20196;-76
2022/04/16 01:44:32;;;;;;;2.90;1.25;;;14.00;99.90;;;;;;5026903;28;20222;-75
2022/04/16 01:46:59;;;;;;;3.42;1.48;;;14.00;99.90;;;;;;5031341;28;20662;-76
2022/04/16 01:49:26;;;;;;;1.23;1.13;;;13.90;99.90;;;;;;5032898;28;20218;-76
2022/04/16 01:51:54;;;;;;;1.48;1.38;;;13.90;99.90;;;;;;5030778;28;20208;-76
2022/04/16 01:54:21;;;;;;;2.58;1.55;;;13.90;99.90;;;;;;5030045;28;20582;-76
2022/04/16 01:56:48;;;;;;;1.77;1.40;;;13.80;99.90;;;;;;5032854;28;20632;-76
2022/04/16 01:59:17;;;;;;;1.42;1.33;;;13.80;99.90;;;;;;5032668;28;20276;-76
2022/04/16 02:01:45;;;;;;;2.03;1.65;;;13.80;99.90;;;;;;5030967;28;20269;-76
2022/04/16 02:04:12;;;;;;;2.30;1.40;;;13.70;99.90;;;;;;5033844;28;20684;-76
2022/04/16 02:06:39;;;;;;;1.70;1.60;;;13.70;99.90;;;;;;5028400;28;20265;-76
2022/04/16 02:09:06;;;;;;;1.58;1.48;;;13.60;99.90;;;;;;5030338;28;20242;-77
2022/04/16 02:11:33;;;;;;;1.60;1.50;;;13.60;99.90;;;;;;5027289;28;20211;-76
2022/04/16 02:14:02;;;;;;;1.67;1.58;;;13.60;99.90;;;;;;5027214;28;20656;-75
2022/04/16 02:16:30;;;;;;;1.58;1.45;;;13.60;99.90;;;;;;5031413;28;20674;-76
2022/04/16 02:19:00;;;;;;;1.90;1.30;;;13.60;99.90;;;;;;5028132;28;20238;-76
2022/04/16 02:21:27;;;;;;;2.58;1.38;;;13.50;99.90;;;;;;5034383;28;20625;-76
2022/04/16 02:23:54;;;;;;;1.60;1.50;;;13.40;99.90;;;;;;5029140;28;20223;-76
2022/04/16 02:26:21;;;;;;;2.03;1.40;;;13.40;99.90;;;;;;5033382;28;20196;-76
2022/04/16 02:28:49;;;;;;;1.40;1.30;;;13.30;99.90;;;;;;5028588;28;21602;-75
2022/04/16 02:31:16;;;;;;;1.50;1.40;;;13.30;99.90;;;;;;5026116;28;20459;-76
2022/04/16 02:33:44;;;;;;;1.50;1.40;;;13.40;99.90;;;;;;5029919;28;20218;-76
2022/04/16 02:36:12;;;;;;;1.75;1.30;;;13.40;99.90;;;;;;5026758;28;20231;-76
2022/04/16 02:38:41;;;;;;;1.67;1.55;;;13.30;99.90;;;;;;5029637;28;20338;-76
2022/04/16 02:41:08;;;;;;;2.67;1.77;;;13.30;99.90;;;;;;5026505;28;20298;-76
2022/04/16 02:43:35;;;;;;;3.92;1.92;;;13.20;99.90;;;;;;5033074;28;20220;-76
2022/04/16 02:48:48;;;;;;;3.30;2.00;;;13.00;99.90;;;;;;5029905;28;20703;-76
2022/04/16 02:51:15;;;;;;;3.83;1.98;;;13.00;99.90;;;;;;5025567;28;20541;-76
2022/04/16 02:53:42;;;;;;;2.05;1.88;;;13.00;99.90;;;;;;5028232;28;20269;-76
2022/04/16 02:56:09;;;;;;;2.33;1.58;;;13.00;99.90;;;;;;5030683;28;20929;-76
2022/04/16 02:58:36;;;;;;;1.60;1.50;;;13.00;99.90;;;;;;5025637;28;20262;-76
2022/04/16 03:01:05;;;;;;;1.83;1.50;;;13.00;99.90;;;;;;5030839;28;20701;-76
2022/04/16 03:03:32;;;;;;;1.50;1.35;;;13.00;99.90;;;;;;5031353;28;20264;-76
2022/04/16 03:06:01;;;;;;;2.00;1.55;;;13.00;99.90;;;;;;5028268;28;20693;-76
2022/04/16 03:08:28;;;;;;;2.65;1.70;;;12.90;99.90;;;;;;5034175;28;20262;-76
2022/04/16 03:10:55;;;;;;;1.85;1.40;;;12.80;99.90;;;;;;5025103;28;20223;-76
2022/04/16 03:13:23;;;;;;;1.35;1.25;;;12.90;99.90;;;;;;5024755;28;20366;-76
2022/04/16 03:18:34;;;;;;;1.73;1.33;;;12.90;99.90;;;;;;5025414;28;20297;-77
2022/04/16 03:21:03;;;;;;;1.55;1.45;;;12.90;99.90;;;;;;5061617;22;20227;-79
2022/04/16 03:23:30;;;;;;;1.50;1.40;;;12.80;99.90;;;;;;5042654;28;20282;-76
2022/04/16 03:26:00;;;;;;;1.65;1.50;;;12.80;99.90;;;;;;5045096;28;20203;-80
2022/04/16 03:28:27;;;;;;;1.40;1.30;;;12.80;99.90;;;;;;5047312;28;20227;-78
2022/04/16 03:30:54;;;;;;;1.60;1.42;;;12.80;99.90;;;;;;5048428;28;20255;-78
2022/04/16 03:33:22;;;;;;;2.10;1.90;;;12.80;99.90;;;;;;5053671;28;20233;-79
2022/04/16 03:35:49;;;;;;;3.33;1.70;;;12.90;99.90;;;;;;5051030;28;20214;-82
2022/04/16 03:38:17;;;;;;;2.03;1.73;;;12.80;99.90;;;;;;5049104;28;20225;-79
2022/04/16 03:40:44;;;;;;;1.58;1.40;;;12.80;99.90;;;;;;5051102;28;20222;-78
2022/04/16 03:43:12;;;;;;;1.85;1.52;;;12.70;99.90;;;;;;5049724;28;20238;-79
2022/04/16 03:45:39;;;;;;;1.45;1.35;;;12.70;99.90;;;;;;5050892;28;21467;-79
2022/04/16 03:48:08;;;;;;;1.85;1.75;;;12.70;99.90;;;;;;5051380;28;20191;-80
2022/04/16 03:50:36;;;;;;;1.65;1.50;;;12.70;99.90;;;;;;5049367;28;20271;-79
2022/04/16 03:53:04;;;;;;;1.42;1.40;;;12.60;99.90;;;;;;5050175;28;20195;-78
2022/04/16 04:01:05;;;;;;;1.40;1.30;;;12.60;99.90;;;;;;5052877;28;20260;-82
2022/04/16 04:03:32;;;;;;;1.55;1.42;;;12.60;99.90;;;;;;5048997;28;20223;-77
2022/04/16 04:06:02;;;;;;;1.63;1.52;;;12.60;99.90;;;;;;5049981;28;20194;-79
2022/04/16 04:08:29;;;;;;;1.60;1.50;;;12.60;99.90;;;;;;5047574;28;20277;-80
2022/04/16 04:10:57;;;;;;;1.40;1.30;;;12.60;99.90;;;;;;5048945;28;20714;-78
2022/04/16 04:13:25;;;;;;;1.63;1.52;;;12.50;99.90;;;;;;5047620;28;20241;-82
2022/04/16 04:15:53;;;;;;;1.52;1.40;;;12.50;99.90;;;;;;5050374;28;20211;-79
2022/04/16 04:18:22;;;;;;;1.58;1.48;;;12.50;99.90;;;;;;5051446;28;20716;-78
2022/04/16 04:20:49;;;;;;;2.03;1.77;;;12.50;99.90;;;;;;5049838;28;20265;-78
2022/04/16 04:23:17;;;;;;;1.73;1.30;;;12.60;99.90;;;;;;5048459;28;20219;-83
2022/04/16 04:25:44;;;;;;;2.47;1.77;;;12.60;99.90;;;;;;5051268;28;20195;-83
2022/04/16 04:28:13;;;;;;;4.50;1.60;;;12.60;99.90;;;;;;5061580;28;20202;-78
2022/04/16 04:30:40;;;;;;;2.20;1.95;;;12.60;99.90;;;;;;5050911;28;20407;-79
2022/04/16 04:33:07;;;;;;;1.85;1.52;;;12.60;99.90;;;;;;5050750;28;20697;-77
2022/04/16 04:35:34;;;;;;;5.63;2.28;;;12.60;99.90;;;;;;5052592;28;20229;-78
2022/04/16 04:38:01;;;;;;;2.35;2.00;;;12.50;99.90;;;;;;5047590;28;20198;-77
2022/04/16 04:40:29;;;;;;;2.72;1.77;;;12.50;99.90;;;;;;5045723;28;20223;-79
2022/04/16 04:42:56;;;;;;;2.30;2.10;;;12.50;99.90;;;;;;5053824;28;20221;-78
2022/04/16 04:45:25;;;;;;;2.38;1.77;;;12.40;99.90;;;;;;5057111;28;20219;-78
2022/04/16 04:47:52;;;;;;;2.35;1.92;;;12.40;99.90;;;;;;5056166;28;20680;-81
2022/04/16 04:50:19;;;;;;;1.85;1.55;;;12.40;99.90;;;;;;5058596;28;20218;-78
2022/04/16 04:52:47;;;;;;;1.80;1.70;;;12.40;99.90;;;;;;5056902;28;20200;-78
2022/04/16 04:55:14;;;;;;;2.15;1.50;;;12.40;99.90;;;;;;5059168;28;20223;-77
2022/04/16 04:57:42;;;;;;;2.90;1.48;;;12.50;99.90;;;;;;5056790;28;20197;-76
2022/04/16 05:00:12;;;;;;;2.15;1.70;;;12.50;99.90;;;;;;5054972;28;20257;-78
2022/04/16 05:02:46;;;;;;;3.00;2.03;;;12.60;99.90;;;;;;5055847;28;20199;-77
2022/04/16 05:05:14;;;;;;;2.92;1.52;;;12.60;99.90;;;;;;5057302;28;20223;-79
2022/04/16 05:07:42;;;;;;;2.13;1.63;;;12.70;99.90;;;;;;5057547;28;20268;-77
2022/04/16 05:10:09;;;;;;;2.88;1.85;;;12.70;99.90;;;;;;5054180;28;20235;-77
2022/04/16 05:12:37;;;;;;;3.33;2.00;;;12.90;99.90;;;;;;5054947;28;20195;-78
2022/04/16 05:15:04;;;;;;;2.80;1.85;;;13.20;99.90;;;;;;5053238;28;20230;-78
2022/04/16 05:17:31;;;;;;;1.70;1.50;;;13.60;99.90;;;;;;5054012;28;20199;-78
2022/04/16 05:20:03;;;;;;;2.17;1.88;;;13.90;99.90;;;;;;5056465;28;20235;-78
2022/04/16 05:22:31;;;;;;;1.77;1.67;;;14.10;99.90;;;;;;5055600;28;20552;-78
2022/04/16 05:24:59;;;;;;;1.63;1.50;;;14.30;99.90;;;;;;5055453;28;20738;-82
2022/04/16 05:27:26;;;;;;;2.35;1.70;;;14.60;99.90;;;;;;5055308;28;20195;-78
2022/04/16 05:30:13;;;;;;;3.05;2.03;;;14.80;99.90;;;;;;5056844;28;20284;-79
2022/04/16 05:32:42;;;;;;;1.92;1.60;;;15.00;99.90;;;;;;5053738;28;20543;-78
2022/04/16 05:35:12;;;;;;;2.50;1.67;;;15.20;99.90;;;;;;5052232;28;20669;-78
2022/04/16 05:37:39;;;;;;;1.40;1.30;;;15.40;99.90;;;;;;5052632;28;20199;-77
2022/04/16 05:40:08;;;;;;;2.00;1.80;;;15.50;99.90;;;;;;5051410;28;20226;-77
2022/04/16 05:42:40;;;;;;;3.70;1.73;;;15.70;99.90;;;;;;5053847;28;20203;-79
2022/04/16 05:45:08;;;;;;;1.63;1.38;;;15.90;99.90;;;;;;5051630;28;20273;-80
2022/04/16 05:47:35;;;;;;;5.78;2.15;;;16.00;99.90;;;;;;5049617;28;20928;-81
2022/04/16 05:50:04;;;;;;;2.03;1.45;;;16.20;99.90;;;;;;5051504;28;20230;-80
2022/04/16 05:52:33;;;;;;;2.20;1.75;;;16.30;99.90;;;;;;5048592;28;20203;-79
2022/04/16 05:55:00;;;;;;;2.17;1.45;;;16.50;99.90;;;;;;5046442;28;20234;-80
2022/04/16 05:57:29;;;;;;;2.08;1.80;;;16.70;99.40;;;;;;5052741;28;20199;-81
2022/04/16 05:59:56;;;;;;;3.33;1.33;;;16.80;99.20;;;;;;5050247;28;20218;-79
2022/04/16 06:02:24;;;;;;;2.42;1.80;;;16.90;99.00;;;;;;5052542;28;20194;-81
2022/04/16 06:04:51;;;;;;;3.42;1.65;;;16.90;99.20;;;;;;5052312;28;20219;-81
2022/04/16 06:07:18;;;;;;;1.48;1.38;;;16.90;99.20;;;;;;5052759;28;20218;-80
2022/04/16 06:09:46;;;;;;;3.17;1.95;;;17.00;99.20;;;;;;5049749;28;20222;-82
2022/04/16 06:12:13;;;;;;;2.50;1.40;;;17.00;98.70;;;;;;5055079;28;20253;-78
2022/04/16 06:14:41;;;;;;;2.80;1.58;;;17.10;99.00;;;;;;5065536;28;20222;-81
2022/04/16 06:17:08;;;;;;;3.35;1.90;;;17.40;98.70;;;;;;5053631;28;20264;-80
2022/04/16 06:19:35;;;;;;;2.17;1.50;;;17.50;98.80;;;;;;5053731;28;20264;-80
2022/04/16 06:22:02;;;;;;;1.92;1.60;;;17.60;98.70;;;;;;5055155;28;20230;-79
2022/04/16 06:24:29;;;;;;;1.52;1.42;;;17.60;98.60;;;;;;5054354;28;20210;-81
2022/04/16 06:26:57;;;;;;;2.70;1.90;;;17.60;99.00;;;;;;5050927;28;20268;-79
2022/04/16 06:29:24;;;;;;;2.13;1.65;;;17.70;99.00;;;;;;5051661;28;20234;-76
2022/04/16 06:31:52;;;;;;;3.05;1.70;;;17.80;98.80;;;;;;5051212;28;20215;-79
2022/04/16 06:34:19;;;;;;;2.10;1.88;;;17.90;98.90;;;;;;5051011;28;20218;-82
2022/04/16 06:36:46;;;;;;;1.70;1.60;;;18.00;98.50;;;;;;5049596;28;20222;-80
2022/04/16 06:39:13;;;;;;;2.22;1.50;;;18.30;98.60;;;;;;5050653;28;20272;-76
2022/04/16 06:41:40;;;;;;;1.63;1.50;;;18.70;98.10;;;;;;5047512;28;20222;-77
2022/04/16 06:44:08;;;;;;;3.40;1.55;;;18.90;97.80;;;;;;5051447;28;20226;-78
2022/04/16 06:46:35;;;;;;;2.10;1.63;;;19.00;97.10;;;;;;5052684;28;20203;-78
2022/04/16 06:49:02;;;;;;;2.20;1.80;;;19.10;97.40;;;;;;5052798;28;21497;-77
2022/04/16 06:51:29;;;;;;;2.80;1.88;;;19.10;97.10;;;;;;5050952;28;20345;-80
2022/04/16 06:53:56;;;;;;;2.92;1.95;;;19.10;96.40;;;;;;5052980;28;20297;-78
2022/04/16 06:56:23;;;;;;;1.50;1.40;;;19.00;96.50;;;;;;5050752;28;20264;-79
2022/04/16 06:58:50;;;;;;;2.40;1.70;;;19.10;96.60;;;;;;5051901;28;20249;-78
2022/04/16 07:01:19;;;;;;;4.40;2.15;;;19.20;96.30;;;;;;5047402;28;20715;-78
2022/04/16 07:03:46;;;;;;;3.30;1.60;;;19.40;96.60;;;;;;5046738;28;20203;-78
2022/04/16 07:06:13;;;;;;;2.20;1.40;;;19.40;95.30;;;;;;5053119;28;20214;-76
2022/04/16 07:08:40;;;;;;;2.08;1.60;;;19.60;95.70;;;;;;5066625;28;20190;-78
2022/04/16 07:11:07;;;;;;;2.58;1.67;;;20.00;95.30;;;;;;5051628;28;20212;-77
2022/04/16 07:13:34;;;;;;;2.78;1.80;;;19.90;94.90;;;;;;5053132;28;20194;-77
2022/04/16 07:16:01;;;;;;;1.92;1.45;;;19.90;95.20;;;;;;5050934;28;20222;-79
2022/04/16 07:18:30;;;;;;;2.10;1.42;;;20.00;94.80;;;;;;5055320;28;20783;-78
2022/04/16 07:20:57;;;;;;;3.08;1.58;;;20.10;94.80;;;;;;5058101;28;20222;-79
2022/04/16 07:23:24;;;;;;;2.15;1.30;;;20.20;94.70;;;;;;5053321;28;20202;-78
2022/04/16 07:25:51;;;;;;;1.67;1.48;;;20.30;94.50;;;;;;5052232;28;20631;-78
2022/04/16 07:28:22;;;;;;;1.65;1.40;;;20.60;94.10;;;;;;5053712;28;20211;-78
2022/04/16 07:30:49;;;;;;;2.30;1.73;;;20.60;93.70;;;;;;5049301;28;20313;-78
2022/04/16 07:33:16;;;;;;;3.20;1.70;;;20.70;94.50;;;;;;5051880;28;20230;-78
2022/04/16 07:35:45;;;;;;;2.22;1.77;;;21.00;94.30;;;;;;5049082;28;20234;-78
2022/04/16 07:38:13;;;;;;;3.20;1.38;;;21.10;93.90;;;;;;5051951;28;20699;-76
2022/04/16 07:40:40;;;;;;;2.63;1.60;;;21.20;93.40;;;;;;5054941;28;20569;-78
2022/04/16 07:43:07;;;;;;;2.00;1.70;;;21.00;93.60;;;;;;5053684;28;20199;-79
2022/04/16 07:45:35;;;;;;;2.65;1.80;;;21.00;94.30;;;;;;5055892;28;20226;-79
2022/04/16 07:48:02;;;;;;;4.03;1.90;;;20.80;94.30;;;;;;5048170;28;20198;-79
2022/04/16 07:50:29;;;;;;;2.22;1.60;;;20.80;94.20;;;;;;5048793;28;20254;-79
2022/04/16 07:52:57;;;;;;;3.47;1.90;;;20.70;94.00;;;;;;5051697;28;20249;-78
2022/04/16 07:55:27;;;;;;;2.53;1.77;;;20.60;93.80;;;;;;5051023;28;20218;-78
2022/04/16 08:00:35;;;;;;;2.33;1.40;;;20.50;93.20;;;;;;5044724;28;20230;-77
2022/04/16 08:03:02;;;;;;;1.80;1.40;;;20.50;93.60;;;;;;5059633;28;20649;-79
2022/04/16 08:05:29;;;;;;;1.80;1.40;;;20.70;93.60;;;;;;5048845;28;20218;-77
2022/04/16 08:07:58;;;;;;;3.22;1.60;;;21.00;92.80;;;;;;5049745;28;20191;-76
2022/04/16 08:10:25;;;;;;;1.42;1.33;;;21.20;92.60;;;;;;5053983;28;20226;-77
2022/04/16 08:12:52;;;;;;;1.80;1.58;;;21.10;91.70;;;;;;5052013;28;20680;-77
2022/04/16 08:15:19;;;;;;;2.03;1.45;;;21.20;92.00;;;;;;5051611;28;20787;-77
2022/04/16 08:17:46;;;;;;;2.60;1.40;;;21.50;91.90;;;;;;5058074;28;20223;-77
2022/04/16 08:20:13;;;;;;;1.98;1.33;;;21.50;91.90;;;;;;5061125;28;20233;-77
2022/04/16 08:22:46;;;;;;;4.63;1.20;;;21.80;91.80;;;;;;5061269;28;20194;-77
2022/04/16 08:27:59;;;;;;;1.45;1.25;;;22.40;91.00;;;;;;5061073;28;20217;-77
2022/04/16 08:30:26;;;;;;;1.60;1.35;;;22.60;90.00;;;;;;5061810;28;20234;-77
2022/04/16 08:32:53;;;;;;;1.73;1.60;;;22.70;89.90;;;;;;5058006;28;21771;-77
2022/04/16 08:35:20;;;;;;;1.55;1.38;;;22.60;90.10;;;;;;5052123;28;20268;-76
2022/04/16 08:37:49;;;;;;;2.25;1.80;;;22.50;89.90;;;;;;5055675;28;20751;-77
2022/04/16 08:40:19;;;;;;;2.30;1.30;;;22.50;90.20;;;;;;5051233;28;20234;-77
2022/04/16 08:42:48;;;;;;;1.20;1.20;;;22.50;88.20;;;;;;5045734;28;20203;-76
2022/04/16 08:45:16;;;;;;;1.52;1.23;;;22.60;88.40;;;;;;5050830;28;20254;-76
2022/04/16 08:47:44;;;;;;;1.73;1.30;;;22.60;87.40;;;;;;5053994;28;20198;-77
2022/04/16 08:50:13;;;;;;;1.73;1.50;;;22.60;85.80;;;;;;5054930;28;20415;-77
2022/04/16 08:52:41;;;;;;;1.70;1.38;;;22.60;86.40;;;;;;5054307;28;20206;-77
2022/04/16 08:55:13;;;;;;;1.85;1.42;;;22.70;86.40;;;;;;5063923;28;20248;-76
2022/04/16 08:57:41;;;;;;;2.97;1.25;;;22.80;86.70;;;;;;5059056;28;20619;-77
2022/04/16 09:00:13;;;;;;;1.63;1.13;;;22.80;84.10;;;;;;5057591;28;20333;-76
2022/04/16 09:02:56;;;;;;;3.25;1.50;;;22.70;83.50;;;;;;5051713;28;20195;-77
2022/04/16 09:05:23;;;;;;;1.70;1.60;;;22.70;81.60;;;;;;5048152;28;20219;-75
2022/04/16 09:07:52;;;;;;;2.53;1.40;;;22.70;82.50;;;;;;5049289;28;20611;-76
2022/04/16 09:10:19;;;;;;;2.45;1.50;;;22.70;84.50;;;;;;5043648;28;20704;-77
2022/04/16 09:12:51;;;;;;;1.75;1.48;;;22.70;84.30;;;;;;5050707;28;20252;-76
2022/04/16 09:15:19;;;;;;;1.33;1.20;;;22.60;85.60;;;;;;5048540;28;20280;-76
2022/04/16 09:17:57;;;;;;;1.92;1.30;;;22.60;85.40;;;;;;5046110;28;20218;-76
2022/04/16 09:20:31;;;;;;;2.15;1.38;;;22.60;84.80;;;;;;5046575;28;20219;-76
2022/04/16 09:22:58;;;;;;;2.65;1.48;;;22.70;84.90;;;;;;5074331;22;20232;-77
2022/04/16 09:25:30;;;;;;;2.45;1.63;;;22.90;84.10;;;;;;5057828;28;20252;-76
2022/04/16 09:28:05;;;;;;;2.85;1.58;;;22.80;84.50;;;;;;5067394;28;20190;-76
2022/04/16 09:30:33;;;;;;;1.50;1.20;;;23.00;83.90;;;;;;5063953;28;20222;-76
2022/04/16 09:33:01;;;;;;;2.80;1.25;;;23.00;83.80;;;;;;5049828;28;20301;-77
2022/04/16 09:35:30;;;;;;;3.08;1.38;;;23.10;82.50;;;;;;5044257;28;20257;-76
2022/04/16 09:37:58;;;;;;;2.35;1.10;;;23.20;82.30;;;;;;5048142;28;20230;-76
2022/04/16 09:40:26;;;;;;;1.30;1.20;;;23.10;80.80;;;;;;5043481;28;20651;-77
2022/04/16 09:42:55;;;;;;;1.23;1.10;;;23.20;81.20;;;;;;5043661;28;20618;-75
2022/04/16 09:45:23;;;;;;;1.23;1.00;;;23.10;79.30;;;;;;5046885;28;20478;-75
2022/04/16 09:47:52;;;;;;;1.20;1.10;;;23.10;77.60;;;;;;5040532;28;20191;-78
2022/04/16 09:50:20;;;;;;;2.75;1.20;;;23.00;78.10;;;;;;5038715;28;20231;-75
2022/04/16 09:52:51;;;;;;;1.63;1.10;;;23.20;77.90;;;;;;5045744;28;20264;-75
2022/04/16 09:55:20;;;;;;;1.40;1.00;;;23.40;79.00;;;;;;5045426;28;20223;-75
2022/04/16 09:57:50;;;;;;;1.80;1.10;;;23.50;75.70;;;;;;5044308;28;20219;-76
2022/04/16 10:00:18;;;;;;;0.98;0.90;;;23.50;72.80;;;;;;5046274;28;20234;-76
2022/04/16 10:02:47;;;;;;;2.35;0.98;;;23.40;71.50;;;;;;5040978;28;20302;-76
2022/04/16 10:05:14;;;;;;;1.00;0.90;;;23.40;73.20;;;;;;5043778;28;20353;-75
2022/04/16 10:07:44;;;;;;;2.08;1.00;;;23.70;73.80;;;;;;5045331;28;20195;-75
2022/04/16 10:10:19;;;;;;;0.88;0.88;;;24.10;73.00;;;;;;5048061;28;20334;-76
2022/04/16 10:13:03;;;;;;;1.75;1.00;;;24.20;71.20;;;;;;5051338;28;20715;-77
2022/04/16 10:15:54;;;;;;;1.77;1.05;;;24.20;69.10;;;;;;5043506;28;20223;-76
2022/04/16 10:18:22;;;;;;;1.88;0.93;;;24.40;72.60;;;;;;5058855;28;20215;-76
2022/04/16 10:20:54;;;;;;;1.08;0.90;;;24.70;67.90;;;;;;5054775;28;20219;-77
2022/04/16 10:23:29;;;;;;;1.98;1.13;;;24.50;67.90;;;;;;5044294;28;20218;-74
2022/04/16 10:26:05;;;;;;;1.30;1.13;;;24.70;67.00;;;;;;5051712;28;20210;-76
2022/04/16 10:28:40;;;;;;;1.05;1.05;;;24.90;64.70;;;;;;5038115;28;20600;-76
2022/04/16 10:31:19;;;;;;;1.33;1.00;;;24.70;63.90;;;;;;5040465;28;20226;-76
2022/04/16 10:33:58;;;;;;;1.05;0.90;;;25.00;68.10;;;;;;5044968;28;20293;-77
2022/04/16 10:36:32;;;;;;;1.33;1.00;;;25.00;62.70;;;;;;5039790;28;20655;-75
2022/04/16 10:39:00;;;;;;;0.70;0.70;;;25.10;64.00;;;;;;5039159;28;20191;-76
2022/04/16 10:41:27;;;;;;;1.00;0.90;;;25.20;63.50;;;;;;5043701;28;20298;-76
2022/04/16 10:43:59;;;;;;;1.23;0.95;;;25.40;64.90;;;;;;5045677;28;20623;-76
2022/04/16 10:46:39;;;;;;;0.95;0.90;;;25.50;62.50;;;;;;5036703;28;20843;-75
2022/04/16 10:49:11;;;;;;;0.90;0.90;;;25.60;65.00;;;;;;5041930;28;20225;-76
2022/04/16 10:51:38;;;;;;;1.00;0.93;;;25.90;63.60;;;;;;5035632;28;20233;-77
2022/04/16 10:54:10;;;;;;;0.70;0.70;;;26.10;64.50;;;;;;5041422;28;20252;-76
2022/04/16 10:56:39;;;;;;;0.90;0.90;;;26.30;65.60;;;;;;5036254;28;20250;-76
2022/04/16 10:59:07;;;;;;;1.77;0.90;;;26.50;62.80;;;;;;5037618;28;20291;-76
2022/04/16 11:01:35;;;;;;;2.63;0.90;;;26.40;65.30;;;;;;5041517;28;20302;-77
2022/04/16 11:04:19;;;;;;;0.63;0.63;;;26.20;62.80;;;;;;5039901;28;20213;-77
2022/04/16 11:06:51;;;;;;;0.90;0.90;;;25.80;59.30;;;;;;5036929;28;20222;-77
2022/04/16 11:09:19;;;;;;;1.20;1.00;;;25.70;60.00;;;;;;5036909;28;20230;-76
2022/04/16 11:11:51;;;;;;;1.60;0.90;;;25.50;60.30;;;;;;5039461;28;20225;-77
2022/04/16 11:14:18;;;;;;;1.50;0.93;;;25.50;62.30;;;;;;5036247;28;20191;-76
2022/04/16 11:16:46;;;;;;;1.13;0.90;;;25.50;62.20;;;;;;5037771;28;20219;-78
2022/04/16 11:19:16;;;;;;;2.22;0.80;;;25.70;62.90;;;;;;5038907;28;20585;-75
2022/04/16 11:21:44;;;;;;;3.58;1.02;;;26.00;62.90;;;;;;5036449;28;20313;-76
2022/04/16 11:24:11;;;;;;;2.60;1.80;;;26.00;61.10;;;;;;5043596;28;20225;-76
2022/04/16 11:34:55;;;;;;;1.08;1.00;;;24.20;56.80;;;;;;5037061;28;20256;-76
2022/04/16 11:37:22;;;;;;;1.55;0.90;;;24.20;56.60;;;;;;5037283;28;20621;-73
2022/04/16 11:39:59;;;;;;;1.00;0.90;;;24.50;60.00;;;;;;5038418;28;20325;-75
2022/04/16 11:42:26;;;;;;;1.00;1.00;;;25.00;59.50;;;;;;5037025;28;20289;-75
2022/04/16 11:44:54;;;;;;;2.30;1.20;;;25.20;60.80;;;;;;5040615;28;20198;-76
2022/04/16 11:47:23;;;;;;;1.45;1.17;;;25.50;58.30;;;;;;5039906;28;20191;-75
2022/04/16 11:49:52;;;;;;;1.27;1.17;;;25.60;59.20;;;;;;5041048;28;20214;-74
2022/04/16 11:52:25;;;;;;;2.53;1.33;;;25.50;58.60;;;;;;5040709;28;20219;-75
2022/04/16 11:55:01;;;;;;;2.63;0.90;;;25.50;59.00;;;;;;5040584;28;20202;-76
2022/04/16 11:57:28;;;;;;;1.25;1.17;;;25.30;58.90;;;;;;5036068;28;20215;-74
2022/04/16 11:59:59;;;;;;;1.95;1.02;;;25.00;58.70;;;;;;5033880;28;20195;-74
2022/04/16 12:02:34;;;;;;;1.95;1.10;;;24.80;58.30;;;;;;5038781;28;20725;-77
2022/04/16 12:05:08;;;;;;;1.27;1.17;;;24.90;57.50;;;;;;5039428;28;20655;-77
2022/04/16 12:07:37;;;;;;;3.40;0.90;;;24.90;55.30;;;;;;5038495;28;20197;-76
2022/04/16 12:10:06;;;;;;;1.20;1.10;;;24.90;58.40;;;;;;5037980;28;20191;-74
2022/04/16 12:12:44;;;;;;;2.45;0.80;;;25.10;58.70;;;;;;5038994;28;20307;-74
2022/04/16 12:15:11;;;;;;;1.33;1.00;;;25.40;59.00;;;;;;5038394;28;20197;-75
2022/04/16 12:17:41;;;;;;;1.38;0.90;;;25.50;57.60;;;;;;5037732;28;20222;-78
2022/04/16 12:20:11;;;;;;;1.90;1.10;;;25.60;57.70;;;;;;5038315;28;20201;-77
2022/04/16 12:22:50;;;;;;;1.60;1.20;;;25.30;54.10;;;;;;5039842;28;20292;-77
2022/04/16 12:25:19;;;;;;;3.28;1.15;;;24.70;53.50;;;;;;5039329;28;20264;-74
2022/04/16 12:27:47;;;;;;;5.93;1.20;;;24.20;56.30;;;;;;5035692;28;20195;-74
2022/04/16 12:30:19;;;;;;;3.58;1.48;;;23.60;57.10;;;;;;5039861;28;20199;-75
2022/04/16 12:32:59;;;;;;;2.20;1.20;;;23.60;58.80;;;;;;5035971;28;20238;-76
2022/04/16 12:35:26;;;;;;;2.42;1.10;;;23.90;58.70;;;;;;5031844;28;20306;-75
2022/04/16 12:37:56;;;;;;;3.30;1.40;;;24.20;57.30;;;;;;5036666;28;20273;-76
2022/04/16 12:40:24;;;;;;;1.45;0.90;;;24.30;54.90;;;;;;5043405;28;20301;-76
2022/04/16 12:42:52;;;;;;;0.98;0.88;;;24.20;54.20;;;;;;5036272;28;20692;-72
2022/04/16 12:45:20;;;;;;;0.90;0.90;;;24.10;55.40;;;;;;5038971;28;20207;-76
2022/04/16 12:47:47;;;;;;;1.40;0.98;;;24.20;56.10;;;;;;5035963;28;20634;-75
2022/04/16 12:50:14;;;;;;;3.70;0.98;;;24.40;56.50;;;;;;5035122;28;20199;-75
2022/04/16 12:52:42;;;;;;;1.00;1.00;;;24.30;55.30;;;;;;5038367;28;20302;-75
2022/04/16 12:55:11;;;;;;;1.70;1.20;;;24.50;55.60;;;;;;5036914;28;20210;-75
2022/04/16 12:57:38;;;;;;;1.00;1.00;;;24.50;55.60;;;;;;5037718;28;20219;-76
2022/04/16 13:00:09;;;;;;;0.93;0.90;;;24.50;55.10;;;;;;5039380;28;20199;-74
2022/04/16 13:02:38;;;;;;;1.50;1.05;;;24.40;55.80;;;;;;5040375;28;20247;-76
2022/04/16 13:05:08;;;;;;;1.10;0.80;;;24.50;55.70;;;;;;5043288;28;20679;-76
2022/04/16 13:07:35;;;;;;;1.27;0.90;;;24.70;57.20;;;;;;5040105;28;20829;-73
2022/04/16 13:10:02;;;;;;;1.20;1.15;;;24.90;57.00;;;;;;5043124;28;20203;-76
2022/04/16 13:12:31;;;;;;;1.13;0.90;;;24.90;52.90;;;;;;5044572;28;20334;-76
2022/04/16 13:14:58;;;;;;;2.08;1.13;;;24.70;53.50;;;;;;5041796;28;20467;-77
2022/04/16 13:17:25;;;;;;;1.50;0.90;;;24.30;51.40;;;;;;5044540;28;20223;-77
2022/04/16 13:19:52;;;;;;;0.80;0.80;;;24.10;54.70;;;;;;5044903;28;20200;-76